Terminal Aerodrome Forecast
Issued by NWS Tulsa, OK

Home | Current Version | Previous Version | Text Only | Print | Product List | Glossary On
Versions: 1 2 3 4 5 6 7 8 9 10 11 12 13 14 15 16 17 18
652
FTUS44 KTSA 251550 AAC
TAFFSM
TAF AMD
KFSM 251550Z 2516/2612 02023G29KT 1 1/2SM +TSRA BR SCT015CB OVC026
      TEMPO 2516/2517 3SM -TSRA BKN025CB
     FM251700 19013KT P6SM BKN040
     FM260300 09005KT P6SM BKN100
     FM260900 09005KT P6SM BKN025=

USA.gov is the U.S. government's official web portal to all federal, state and local government web resources and services.